Tiempo atmosférico en la estación meteorológica de Fuencaliente, Ciudad Real (640 m.)



Fecha
DESCASC
Temp. máxima en grados centígrados (hora)
DESCASC
Temp. mínima en grados centígrados (hora)
DESCASC
Temp. media en grados centígrados
DESCASC
Racha de viento máxima en m/sg (hora)
DESCASC
Velocidad máxima media en intervalos de 10 minutos(hora)
DESCASC
Precipitaciones diarias en mm
DESCASC
Precipitaciones de 00:00 a 06:00 en mm
DESCASC
Precipitaciones de 06:00 a 12:00 en mm
DESCASC
Precipitaciones de 12:00 a 18:00 en mm
DESCASC
Precipitaciones de 18:00 a 24:00 en mm
DESCASC
23-06-2019 33.5 (17:20) 13.2 (07:00) 23.3 9.72 (18:40) 4.72 (14:40) 0 0 0 0 0
22-06-2019 31.6 (18:10) 13.2 (07:10) 22.4 7.22 (14:00) 4.44 (15:50) 0 0 0 0 0
21-06-2019 29.2 (18:10) 12.6 (07:50) 20.9 6.94 (16:40) 3.61 (13:30) 0 0 0 0 0
20-06-2019 28.4 (16:40) 11.7 (00:00) 20 8.61 (17:30) 5 (16:50) 0 0 0 0 0
19-06-2019 29.2 (17:30) 11.1 (00:00) 20.2 7.5 (14:40) 3.89 (14:40) 0 0 0 0 0
18-06-2019 28.2 (16:10) 12.6 (00:00) 20.4 10.28 (14:00) 5.83 (17:50) 0 0 0 0 0
17-06-2019 29.8 (16:40) 9.8 (00:00) 19.8 8.61 (15:20) 5.28 (15:30) 0 0 0 0 0
16-06-2019 28.2 (13:00) 10.8 (00:00) 19.5 6.94 (13:10) 3.33 (20:20) 0 0 0 0 0
15-06-2019 26.4 (18:20) 8.8 (00:00) 17.6 7.78 (16:30) 3.61 (16:30) 0 0 0 0 0
14-06-2019 23.7 (17:00) 10.3 (00:00) 17 15.56 (15:50) 6.11 (13:10) 0 0 0 0 0
13-06-2019 27.1 (17:50) 11 (00:00) 19.1 9.17 (13:50) 4.17 (14:20) 0 0 0 0 0
12-06-2019 26.8 (17:00) 10.5 (00:00) 18.6 8.33 (13:00) 4.44 (14:40) 0 0 0 0 0
11-06-2019 25.7 (18:50) 7.8 (00:00) 16.8 9.72 (23:50) 4.72 (12:40) 0 0 0 0 0
10-06-2019 26.3 (17:40) 9.5 (00:00) 17.9 8.06 (14:50) 4.17 (13:50) 0 0 0 0 0
09-06-2019 27 (17:00) 10.6 (00:00) 18.8 9.44 (13:50) 4.44 (18:10) 0 0 0 0 0
08-06-2019 28.3 (16:40) 13.2 (00:00) 20.7 11.39 (14:30) 5.28 (14:30) 0 0 0 0 0
07-06-2019 23.8 (18:40) 10.6 (00:00) 17.2 7.22 (12:40) 3.89 (12:40) 0 0 0 0 0
06-06-2019 24.7 (17:20) 8.1 (00:00) 16.4 10.83 (18:10) 6.11 (19:10) 0 0 0 0 0
05-06-2019 20.6 (15:50) 9.1 (00:00) 14.9 10 (15:50) 4.72 (16:00) 0 0 0 0 0
04-06-2019 29.3 (17:30) 11.6 (00:00) 20.4 11.11 (18:40) 5.56 (19:10) 0 0 0 0 0
03-06-2019 32.9 (15:40) 12.7 (00:00) 22.8 9.72 (15:10) 4.72 (15:10) 0 0 0 0 0
02-06-2019 33.8 (17:40) 11.7 (00:00) 22.7 5.83 (16:00) 2.78 (20:40) 0 0 0 0 0
01-06-2019 32.6 (16:40) 11.8 (00:00) 22.2 11.94 (14:40) 3.33 (14:30) 0 0 0 0 0
31-05-2019 32 (18:40) 11.7 (00:00) 21.8 7.78 (12:50) 3.61 (13:30) 0 0 0 0 0
30-05-2019 30.5 (19:20) 14.3 (00:00) 22.4 8.61 (04:20) 3.33 (04:20) 0 0 0 0 0
29-05-2019 27.3 (18:40) 16 (00:00) 21.6 13.89 (09:10) 7.5 (09:50) 0 0 0 0 0
28-05-2019 30.7 (17:00) 16.2 (00:00) 23.5 8.06 (23:59) 3.61 (10:40) 0 0 0 0 0
27-05-2019 30.7 (18:00) 11.4 (00:00) 21.1 9.44 (15:10) 5.28 (15:10) 0 0 0 0 0
26-05-2019 27.3 (18:10) 12 (00:00) 19.6 14.44 (16:50) 3.89 (10:40) 0 0 0 0 0

Gráficas

Temp. máximas Temp. mínimas Temp. medias Precipitaciones Rachas de viento máximas Velocidades máximas media en intervalos de 10 minutos

Datos horarios

Fecha y hora oficial Temperatura (ºC) Velocidad del viento (km/h) Dirección del viento Racha (km/h) Dirección de racha Precipitación (mm) Presión (hPa) Tendencia (hPa) Humedad (%)
2019-06-24 23:00:00 21.3 0 Calma 7 Nordeste 0 -- -- 47
2019-06-24 22:00:00 23.7 0 Calma 17 Sur 0 -- -- 42
2019-06-24 21:00:00 26.8 9 Sur 16 Sudeste 0 -- -- 35
2019-06-24 20:00:00 28.7 10 Sur 21 Sudeste 0 -- -- 34
2019-06-24 19:00:00 29.1 9 Sur 20 Sudeste 0 -- -- 30
2019-06-24 18:00:00 29 11 Sur 28 Sur 0 -- -- 32
2019-06-24 17:00:00 30.3 12 Sur 27 Sudeste 0 -- -- 30
2019-06-24 16:00:00 30.3 9 Sur 27 Sudoeste 0 -- -- 31
2019-06-24 15:00:00 29 5 Sur 18 Oeste 0 -- -- 32
2019-06-24 14:00:00 27.5 10 Sudoeste 22 Sudoeste 0 -- -- 33
2019-06-24 13:00:00 26.2 8 Sudoeste 16 Sudeste 0 -- -- 35
2019-06-24 12:00:00 25.3 4 Este 12 Sur 0 -- -- 42
2019-06-24 11:00:00 22.2 5 Sudeste 9 Sudeste 0 -- -- 55
2019-06-24 10:00:00 21.3 3 Sudeste 7 Sudeste 0 -- -- 58
2019-06-24 09:00:00 18.4 0 Calma 4 Nordeste 0 -- -- 67
2019-06-24 08:00:00 16.4 0 Calma 3 Nordeste 0 -- -- 68
2019-06-24 07:00:00 15.3 2 Nordeste 5 Este 0 -- -- 69
2019-06-24 06:00:00 15.6 2 Nordeste 5 Oeste 0 -- -- 69
2019-06-24 05:00:00 16.2 2 Nordeste 5 Este 0 -- -- 66
2019-06-24 04:00:00 17.2 0 Calma 3 Este 0 -- -- 58
2019-06-24 03:00:00 18 0 Calma 5 Sudoeste 0 -- -- 56
2019-06-24 02:00:00 19.5 0 Calma 6 Este 0 -- -- 51
2019-06-24 01:00:00 21.3 4 Nordeste 8 Este 0 -- -- 47
2019-06-24 00:00:00 21.6 3 Nordeste 6 Nordeste 0 -- -- 44
2019-06-23 23:00:00 23.8 3 Nordeste 15 Sudoeste 0 -- -- 36
2019-06-23 22:00:00 26.3 6 Sudoeste 19 Sur 0 -- -- 30
2019-06-23 21:00:00 29.5 5 Noroeste 22 Sudoeste 0 -- -- 22
2019-06-23 20:00:00 31.1 10 Sur 26 Oeste 0 -- -- 22
2019-06-23 19:00:00 32.3 11 Sudoeste 35 Sur 0 -- -- 22
2019-06-23 18:00:00 33.1 10 Sudoeste 30 Sudoeste 0 -- -- 19
2019-06-23 17:00:00 33.3 13 Sudoeste 27 Sudoeste 0 -- -- 20
2019-06-23 16:00:00 32.4 10 Sur 27 Sudeste 0 -- -- 21
2019-06-23 15:00:00 32 12 Sur 28 Sur 0 -- -- 21
2019-06-23 14:00:00 31.1 11 Sur 25 Sudoeste 0 -- -- 23
2019-06-23 13:00:00 29.2 5 Oeste 16 Sudoeste 0 -- -- 30
2019-06-23 12:00:00 27.8 6 Sudeste 17 Sudeste 0 -- -- 34
2019-06-23 11:00:00 26.8 3 Sudeste 9 Sur 0 -- -- 36
2019-06-23 10:00:00 23.4 5 Sudeste 10 Sudeste 0 -- -- 44
2019-06-23 09:00:00 20 2 Sudoeste 5 Nordeste 0 -- -- 54
2019-06-23 08:00:00 14.4 0 Calma 4 Nordeste 0 -- -- 71
2019-06-23 07:00:00 13.2 0 Calma 4 Este 0 -- -- 70
2019-06-23 06:00:00 13.7 0 Calma 2 Nordeste 0 -- -- 68
2019-06-23 05:00:00 14.4 0 Calma 4 Nordeste 0 -- -- 64
2019-06-23 04:00:00 15.3 0 Calma 3 Nordeste 0 -- -- 57
2019-06-23 03:00:00 16.2 3 Nordeste 7 Nordeste 0 -- -- 48
2019-06-23 02:00:00 16.8 0 Calma 5 Oeste 0 -- -- 43
2019-06-23 01:00:00 17.5 2 Nordeste 5 Este 0 -- -- 43
2019-06-23 00:00:00 19 2 Norte 7 Nordeste 0 -- -- 42
2019-06-22 23:00:00 20.4 3 Norte 9 Sudoeste 0 -- -- 39
2019-06-22 22:00:00 23.7 3 Sur 12 Sudoeste 0 -- -- 33
2019-06-22 21:00:00 28.3 4 Sudoeste 15 Sudoeste 0 -- -- 23
2019-06-22 20:00:00 30.5 8 Sur 17 Sur 0 -- -- 19
2019-06-22 19:00:00 31.2 7 Sur 23 Sudoeste 0 -- -- 17
2019-06-22 18:00:00 31.4 9 Sur 23 Sudeste 0 -- -- 18
2019-06-22 17:00:00 31.3 6 Sur 21 Sur 0 -- -- 20
2019-06-22 16:00:00 31 10 Sur 23 Sudoeste 0 -- -- 20
2019-06-22 15:00:00 30 7 Sudoeste 22 Sudoeste 0 -- -- 21
2019-06-22 14:00:00 29.4 10 Sudoeste 26 Sudoeste 0 -- -- 23
2019-06-22 13:00:00 28.5 10 Sur 19 Sur 0 -- -- 25
2019-06-22 12:00:00 27.4 7 Sur 15 Sur 0 -- -- 28
2019-06-22 11:00:00 25.8 5 Sur 12 Sudeste 0 -- -- 28
2019-06-22 10:00:00 23.7 3 Sudeste 5 Sudeste 0 -- -- 32
2019-06-22 09:00:00 20 0 Calma 3 Nordeste 0 -- -- 52
2019-06-22 08:00:00 14.1 0 Calma 4 Nordeste 0 -- -- 66
2019-06-22 07:00:00 13.4 0 Calma 2 Nordeste 0 -- -- 62
2019-06-22 06:00:00 14.1 0 Calma 3 Nordeste 0 -- -- 53
2019-06-22 05:00:00 14.1 2 Nordeste 4 Este 0 -- -- 50
2019-06-22 04:00:00 14.6 0 Calma 4 Nordeste 0 -- -- 51
2019-06-22 03:00:00 14.7 0 Calma 3 Este 0 -- -- 47
2019-06-22 02:00:00 15.5 0 Calma 4 Este 0 -- -- 47
2019-06-22 01:00:00 17.6 0 Calma 10 Nordeste 0 -- -- 41
2019-06-22 00:00:00 20.3 4 Nordeste 8 Nordeste 0 -- -- 37
2019-06-21 23:00:00 21.2 4 Nordeste 6 Nordeste 0 -- -- 35
2019-06-21 22:00:00 22.8 2 Este 6 Sudoeste 0 -- -- 34
2019-06-21 21:00:00 25.2 0 Calma 9 Oeste 0 -- -- 30
2019-06-21 20:00:00 28.2 6 Oeste 16 Oeste 0 -- -- 22
2019-06-21 19:00:00 28.9 8 Oeste 21 Oeste 0 -- -- 20
2019-06-21 18:00:00 29 9 Oeste 25 Oeste 0 -- -- 22
2019-06-21 17:00:00 28.5 9 Sudoeste 25 Sudoeste 0 -- -- 24
2019-06-21 16:00:00 28 9 Sur 24 Sudoeste 0 -- -- 26
2019-06-21 15:00:00 27 8 Sudeste 23 Oeste 0 -- -- 31
2019-06-21 14:00:00 26.2 9 Oeste 25 Sudoeste 0 -- -- 34
2019-06-21 13:00:00 25.3 5 Este 23 Sudoeste 0 -- -- 37
2019-06-21 12:00:00 24.1 8 Sur 22 Sudoeste 0 -- -- 40
2019-06-21 11:00:00 22.4 9 Sudoeste 21 Sudoeste 0 -- -- 44
2019-06-21 10:00:00 20.6 6 Sudeste 10 Sudeste 0 -- -- 50
2019-06-21 09:00:00 17.7 3 Sudeste 5 Sudeste 0 -- -- 61
2019-06-21 08:00:00 13.1 0 Calma 5 Nordeste 0 -- -- 77
2019-06-21 07:00:00 13.8 0 Calma 12 Norte 0 -- -- 71
2019-06-21 06:00:00 15.3 4 Norte 12 Noroeste 0 -- -- 66
2019-06-21 05:00:00 15 4 Nordeste 9 Norte 0 -- -- 67
2019-06-21 04:00:00 16.1 0 Calma 9 Nordeste 0 -- -- 61
2019-06-21 03:00:00 16.7 4 Nordeste 8 Este 0 -- -- 59
2019-06-21 02:00:00 16.3 2 Nordeste 5 Nordeste 0 -- -- 57
2019-06-21 01:00:00 17.3 3 Norte 5 Norte 0 -- -- 54
2019-06-21 00:00:00 16.9 0 Calma 6 Este 0 -- -- 60
2019-06-20 23:00:00 19.4 2 Nordeste 11 Sur 0 -- -- 52
2019-06-20 22:00:00 21.5 6 Sur 13 Sur 0 -- -- 46
2019-06-20 21:00:00 23.5 7 Sur 25 Sur 0 -- -- 42
2019-06-20 20:00:00 26.1 11 Sur 22 Sudeste 0 -- -- 38
2019-06-20 19:00:00 27.2 5 Sudoeste 18 Noroeste 0 -- -- 37
2019-06-20 18:00:00 28.3 11 Oeste 31 Oeste 0 -- -- 34
2019-06-20 17:00:00 27.1 9 Sudoeste 26 Sudoeste 0 -- -- 35
2019-06-20 16:00:00 28.1 16 Sudoeste 23 Oeste 0 -- -- 33
2019-06-20 15:00:00 26.2 7 Oeste 22 Sudoeste 0 -- -- 38
2019-06-20 14:00:00 25.8 9 Oeste 22 Sudoeste 0 -- -- 40
2019-06-20 13:00:00 26.1 5 Oeste 18 Oeste 0 -- -- 38
2019-06-20 12:00:00 24.5 8 Sur 15 Sudeste 0 -- -- 42
2019-06-20 11:00:00 22.6 6 Sudeste 11 Sudeste 0 -- -- 50
2019-06-20 10:00:00 20.4 5 Sudeste 9 Sudeste 0 -- -- 59
2019-06-20 09:00:00 18 0 Calma 4 Sur 0 -- -- 65
2019-06-20 08:00:00 12.7 0 Calma 3 Nordeste 0 -- -- 83
2019-06-20 07:00:00 11.8 0 Calma 3 Nordeste 0 -- -- 80
2019-06-20 06:00:00 12.4 0 Calma 2 Nordeste 0 -- -- 76
2019-06-20 05:00:00 13.2 0 Calma 4 Nordeste 0 -- -- 74
2019-06-20 04:00:00 15.1 0 Calma 8 Norte 0 -- -- 69
2019-06-20 03:00:00 17.3 4 Norte 8 Norte 0 -- -- 60
2019-06-20 02:00:00 17.7 4 Norte 8 Norte 0 -- -- 57
2019-06-20 01:00:00 17.8 3 Norte 7 Norte 0 -- -- 58
2019-06-20 00:00:00 18.7 3 Nordeste 6 Nordeste 0 -- -- 56
2019-06-19 23:00:00 19.5 4 Nordeste 7 Norte 0 -- -- 52
2019-06-19 22:00:00 21.8 0 Calma 10 Oeste 0 -- -- 47
2019-06-19 21:00:00 25.4 4 Oeste 14 Sudoeste 0 -- -- 37
2019-06-19 20:00:00 27.2 8 Oeste 20 Oeste 0 -- -- 33
2019-06-19 19:00:00 28.8 9 Oeste 24 Oeste 0 -- -- 31
2019-06-19 18:00:00 28.8 7 Sudoeste 26 Oeste 0 -- -- 31
2019-06-19 17:00:00 28.7 10 Sudoeste 26 Sudoeste 0 -- -- 31
2019-06-19 16:00:00 28.3 14 Sudoeste 27 Oeste 0 -- -- 32
2019-06-19 15:00:00 26.9 13 Sudoeste 27 Oeste 0 -- -- 37
2019-06-19 14:00:00 25.7 8 Sur 23 Oeste 0 -- -- 38
2019-06-19 13:00:00 24.4 9 Sudoeste 22 Sudoeste 0 -- -- 44
2019-06-19 12:00:00 22.7 8 Sur 20 Sur 0 -- -- 51
2019-06-19 11:00:00 20.9 9 Sur 18 Sur 0 -- -- 58
2019-06-19 10:00:00 19.4 6 Sudeste 11 Sudeste 0 -- -- 65
2019-06-19 09:00:00 16.4 3 Sudoeste 8 Oeste 0 -- -- 80
2019-06-19 08:00:00 12.7 0 Calma -- -- 0 -- -- 88
2019-06-19 07:00:00 11.2 0 Calma -- -- 0 -- -- 89
2019-06-19 06:00:00 11.5 0 Calma 2 Sudoeste 0 -- -- 87
2019-06-19 05:00:00 12.3 0 Calma 2 Nordeste 0 -- -- 82
2019-06-19 04:00:00 13.2 0 Calma 3 Nordeste 0 -- -- 80
2019-06-19 03:00:00 14.1 0 Calma 4 Nordeste 0 -- -- 75
2019-06-19 02:00:00 14.8 0 Calma 4 Nordeste 0 -- -- 70
2019-06-19 01:00:00 15.6 0 Calma 3 Este 0 -- -- 62
2019-06-19 00:00:00 16.4 2 Nordeste 6 Nordeste 0 -- -- 54
2019-06-18 23:00:00 18 0 Calma 9 Sudoeste 0 -- -- 50
2019-06-18 22:00:00 22.7 8 Sudoeste 20 Sudoeste 0 -- -- 36
2019-06-18 21:00:00 24.2 10 Sudoeste 29 Sudoeste 0 -- -- 27
2019-06-18 20:00:00 26.6 13 Sudoeste 31 Sur 0 -- -- 18
2019-06-18 19:00:00 27.5 12 Sudoeste 36 Sudoeste 0 -- -- 18
2019-06-18 18:00:00 27.9 17 Sudoeste 36 Sudoeste 0 -- -- 16
2019-06-18 17:00:00 28 18 Sudoeste 37 Oeste 0 -- -- 17
2019-06-18 16:00:00 27.8 16 Sudoeste 35 Oeste 0 -- -- 24
2019-06-18 15:00:00 27.2 14 Sudoeste 31 Sudeste 0 -- -- 26
2019-06-18 14:00:00 26 14 Sur 37 Sudeste 0 -- -- 30
2019-06-18 13:00:00 25.5 14 Sudoeste 31 Sur 0 -- -- 31
2019-06-18 12:00:00 25.2 13 Sur 30 Sudeste 0 -- -- 29
2019-06-18 11:00:00 23.8 7 Sur 19 Sudeste 0 -- -- 37
2019-06-18 10:00:00 22.4 8 Sur 15 Sudeste 0 -- -- 41
2019-06-18 09:00:00 20.3 3 Este 6 Sudeste 0 -- -- 46
2019-06-18 08:00:00 13.2 3 Nordeste 7 Este 0 -- -- 65
2019-06-18 07:00:00 12.8 0 Calma 6 Nordeste 0 -- -- 65
2019-06-18 06:00:00 13.8 0 Calma 6 Nordeste 0 -- -- 59
2019-06-18 05:00:00 14.5 2 Nordeste 5 Nordeste 0 -- -- 56
2019-06-18 04:00:00 14.8 0 Calma 4 Nordeste 0 -- -- 46
2019-06-18 03:00:00 15.8 0 Calma 4 Nordeste 0 -- -- 47
2019-06-18 02:00:00 17.3 0 Calma 8 Nordeste 0 -- -- 41
2019-06-18 01:00:00 18.7 2 Nordeste 22 Oeste 0 -- -- 35
2019-06-18 00:00:00 20.6 6 Oeste 15 Oeste 0 -- -- 29
2019-06-17 23:00:00 22.2 4 Noroeste 12 Oeste 0 -- -- 27
2019-06-17 22:00:00 24 4 Oeste 23 Sudoeste 0 -- -- 23
2019-06-17 21:00:00 26.3 8 Sudoeste 20 Oeste 0 -- -- 20
2019-06-17 20:00:00 28.8 14 Sudoeste 26 Sudoeste 0 -- -- 18
2019-06-17 19:00:00 29.6 12 Sur 24 Sudoeste 0 -- -- 17
2019-06-17 18:00:00 29.6 12 Sudoeste 24 Sudeste 0 -- -- 19
2019-06-17 17:00:00 29.7 8 Sudoeste 29 Sudoeste 0 -- -- 19
2019-06-17 16:00:00 29.3 12 Sur 31 Sudoeste 0 -- -- 20
2019-06-17 15:00:00 29 11 Sudoeste 26 Sudoeste 0 -- -- 23
2019-06-17 14:00:00 27.8 11 Sur 22 Sudoeste 0 -- -- 26
2019-06-17 13:00:00 26.3 9 Este 22 Este 0 -- -- 27
2019-06-17 12:00:00 25.6 5 Sur 15 Este 0 -- -- 30
2019-06-17 11:00:00 24.2 4 Sur 9 Sudeste 0 -- -- 30
2019-06-17 10:00:00 21.9 4 Sur 7 Sur 0 -- -- 32
2019-06-17 09:00:00 17.6 0 Calma 4 Sur 0 -- -- 52
2019-06-17 08:00:00 10.9 0 Calma 4 Este 0 -- -- 71
2019-06-17 07:00:00 9.8 0 Calma 4 Nordeste 0 -- -- 68
2019-06-17 06:00:00 10.4 0 Calma 4 Este 0 -- -- 68
2019-06-17 05:00:00 11.5 2 Nordeste 4 Nordeste 0 -- -- 62
2019-06-17 04:00:00 12.4 0 Calma 5 Nordeste 0 -- -- 58
2019-06-17 03:00:00 13 0 Calma 6 Este 0 -- -- 58
2019-06-17 02:00:00 13.9 0 Calma 6 Nordeste 0 -- -- 54
2019-06-17 01:00:00 15.2 2 Nordeste 5 Este 0 -- -- 49
2019-06-17 00:00:00 18.5 2 Norte 19 Oeste 0 -- -- 41
2019-06-16 23:00:00 21.7 8 Oeste 18 Noroeste 0 -- -- 34
2019-06-16 22:00:00 21.6 5 Sur 18 Sur 0 -- -- 32
2019-06-16 21:00:00 24.7 10 Sudoeste 20 Sudoeste 0 -- -- 24
2019-06-16 20:00:00 26.5 10 Sudoeste 18 Sudoeste 0 -- -- 22
2019-06-16 19:00:00 25.6 8 Sudoeste 22 Sur 0 -- -- 25
2019-06-16 18:00:00 26.2 8 Sur 20 Sudoeste 0 -- -- 23
2019-06-16 17:00:00 26.1 7 Sur 20 Sudoeste 0 -- -- 22
2019-06-16 16:00:00 26.5 9 Sur 18 Sudeste 0 -- -- 22
2019-06-16 15:00:00 27 8 Sur 17 Sur 0 -- -- 20
2019-06-16 14:00:00 27.2 9 Sur 25 Sudeste 0 -- -- 21
2019-06-16 13:00:00 28.2 9 Sudoeste 21 Sudeste 0 -- -- 21
2019-06-16 12:00:00 26.3 9 Sudeste 16 Sur 0 -- -- 23
2019-06-16 11:00:00 24.4 4 Sudeste 9 Sudeste 0 -- -- 27
2019-06-16 10:00:00 21.4 0 Calma 5 Sudoeste 0 -- -- 35
2019-06-16 09:00:00 18 0 Calma 4 Nordeste 0 -- -- 43
2019-06-16 08:00:00 12.6 0 Calma 6 Norte 0 -- -- 61
2019-06-16 07:00:00 10.8 2 Este 10 Noroeste 0 -- -- 56
2019-06-16 06:00:00 11.3 3 Norte 12 Noroeste 0 -- -- 56
2019-06-16 05:00:00 12.6 3 Nordeste 12 Norte 0 -- -- 48
2019-06-16 04:00:00 13 4 Norte 11 Norte 0 -- -- 44
2019-06-16 03:00:00 13.8 3 Norte 13 Norte 0 -- -- 43
2019-06-16 02:00:00 14.2 3 Norte 11 Norte 0 -- -- 46
2019-06-16 01:00:00 17 4 Norte 11 Norte 0 -- -- 33
2019-06-16 00:00:00 17.6 4 Norte 9 Norte 0 -- -- 36
2019-06-15 23:00:00 17.8 0 Calma 10 Nordeste 0 -- -- 39
2019-06-15 22:00:00 19.2 4 Norte 9 Norte 0 -- -- 32
2019-06-15 21:00:00 22.5 3 Oeste 11 Oeste 0 -- -- 26
2019-06-15 20:00:00 26.1 3 Oeste 16 Oeste 0 -- -- 20
2019-06-15 19:00:00 26.2 6 Oeste 17 Oeste 0 -- -- 20
2019-06-15 18:00:00 26 10 Sudoeste 24 Oeste 0 -- -- 22
2019-06-15 17:00:00 25.4 7 Sudoeste 28 Oeste 0 -- -- 25
2019-06-15 16:00:00 24.4 7 Sudeste 20 Sudoeste 0 -- -- 26
2019-06-15 15:00:00 23.7 8 Oeste 26 Sudoeste 0 -- -- 27
2019-06-15 14:00:00 22.4 7 Sur 19 Oeste 0 -- -- 31
2019-06-15 13:00:00 21.1 9 Sudoeste 17 Oeste 0 -- -- 34
2019-06-15 12:00:00 20.2 6 Oeste 19 Sudoeste 0 -- -- 36
2019-06-15 11:00:00 19.6 4 Sur 13 Sudeste 0 -- -- 41
2019-06-15 10:00:00 17.7 5 Oeste 14 Noroeste 0 -- -- 42
2019-06-15 09:00:00 15.6 3 Noroeste 9 Oeste 0 -- -- 52
2019-06-15 08:00:00 10.1 0 Calma 8 Noroeste 0 -- -- 74
2019-06-15 07:00:00 9 2 Norte 6 Norte 0 -- -- 71
2019-06-15 06:00:00 9.6 3 Norte 5 Norte 0 -- -- 68
2019-06-15 05:00:00 9.2 3 Norte 5 Norte 0 -- -- 68
2019-06-15 04:00:00 10.1 4 Norte 5 Norte 0 -- -- 61
2019-06-15 03:00:00 10.6 0 Calma 6 Norte 0 -- -- 59
2019-06-15 02:00:00 11.6 4 Norte 7 Noroeste 0 -- -- 55
2019-06-15 01:00:00 11.9 0 Calma 9 Norte 0 -- -- 53
2019-06-15 00:00:00 13.6 3 Norte 8 Norte 0 -- -- 49
2019-06-14 23:00:00 14.3 3 Norte 7 Noroeste 0 -- -- 46
2019-06-14 22:00:00 17.6 2 Noroeste 16 Oeste 0 -- -- 39
2019-06-14 21:00:00 19.8 7 Oeste 40 Sudoeste 0 -- -- 34
2019-06-14 20:00:00 20.7 12 Sur 35 Sudeste 0 -- -- 34
2019-06-14 19:00:00 22.3 14 Sur 31 Sudoeste 0 -- -- 34
2019-06-14 18:00:00 23.4 11 Sudoeste 36 Sudoeste 0 -- -- 32
2019-06-14 17:00:00 23.7 10 Sudoeste 34 Sudoeste 0 -- -- 31
2019-06-14 16:00:00 22.7 13 Sudoeste 56 Sudoeste 0 -- -- 33
2019-06-14 15:00:00 21.6 18 Sudoeste 34 Sudoeste 0 -- -- 34
2019-06-14 14:00:00 20.7 17 Sudoeste 40 Oeste 0 -- -- 40
2019-06-14 13:00:00 20.6 19 Sudoeste 37 Sudoeste 0 -- -- 41
2019-06-14 12:00:00 19.7 22 Sudoeste 34 Sudoeste 0 -- -- 40
2019-06-14 11:00:00 18.9 15 Sudoeste 29 Sudoeste 0 -- -- 51
2019-06-14 10:00:00 17.2 6 Sudeste 13 Sur 0 -- -- 51
2019-06-14 09:00:00 14.4 2 Sudeste 6 Sudeste 0 -- -- 56
2019-06-14 08:00:00 12.2 0 Calma 4 Nordeste 0 -- -- 61
2019-06-14 07:00:00 10.4 2 Nordeste 7 Nordeste 0 -- -- 59
2019-06-14 06:00:00 11.2 3 Norte 6 Sudoeste 0 -- -- 57
2019-06-14 05:00:00 12.2 0 Calma 5 Noroeste 0 -- -- 52
2019-06-14 04:00:00 14.2 2 Norte 14 Sudoeste 0 -- -- 50
2019-06-14 03:00:00 16.1 2 Nordeste 5 Nordeste 0 -- -- 44
2019-06-14 02:00:00 16.8 0 Calma 3 Nordeste 0 -- -- 51
2019-06-14 01:00:00 17.9 0 Calma 5 Este 0 -- -- 52
2019-06-14 00:00:00 20.5 4 Noroeste 21 Sur 0 -- -- 45
2019-06-13 23:00:00 21.1 6 Sudoeste 18 Sudoeste 0 -- -- 45
2019-06-13 22:00:00 22.2 10 Sudoeste 19 Sudoeste 0 -- -- 43
2019-06-13 21:00:00 23.7 9 Sudoeste 17 Sudoeste 0 -- -- 39
2019-06-13 20:00:00 25.6 8 Sudoeste 23 Sur 0 -- -- 35
2019-06-13 19:00:00 26.3 9 Sudoeste 24 Sudoeste 0 -- -- 34
2019-06-13 18:00:00 26.4 10 Sur 24 Sudoeste 0 -- -- 35
2019-06-13 17:00:00 26.2 13 Sudoeste 27 Sudoeste 0 -- -- 34
2019-06-13 16:00:00 25.1 11 Sur 23 Sudoeste 0 -- -- 38
2019-06-13 15:00:00 26.1 10 Sudoeste 31 Sudoeste 0 -- -- 36
2019-06-13 14:00:00 25.5 11 Sudoeste 33 Sudoeste 0 -- -- 37
2019-06-13 13:00:00 23.9 7 Sudeste 23 Sudeste 0 -- -- 39
2019-06-13 12:00:00 22.6 8 Sur 18 Este 0 -- -- 41
2019-06-13 11:00:00 21.1 6 Sur 18 Este 0 -- -- 47
2019-06-13 10:00:00 19.4 4 Sudeste 10 Sur 0 -- -- 49
2019-06-13 09:00:00 16.7 2 Este 5 Sur 0 -- -- 71
2019-06-13 08:00:00 11.9 0 Calma 2 Este 0 -- -- 87
2019-06-13 07:00:00 11.1 0 Calma 2 Nordeste 0 -- -- 85
2019-06-13 06:00:00 11.9 0 Calma 3 Nordeste 0 -- -- 84
2019-06-13 05:00:00 12.3 0 Calma 4 Nordeste 0 -- -- 79
2019-06-13 04:00:00 12.2 0 Calma 4 Este 0 -- -- 72
2019-06-13 03:00:00 12.8 0 Calma 5 Nordeste 0 -- -- 64
2019-06-13 02:00:00 13.4 0 Calma 5 Nordeste 0 -- -- 59
2019-06-13 01:00:00 15 0 Calma 9 Noroeste 0 -- -- 54
2019-06-13 00:00:00 16.1 2 Nordeste 8 Nordeste 0 -- -- 47
2019-06-12 23:00:00 18.2 2 Nordeste 14 Sudoeste 0 -- -- 41
2019-06-12 22:00:00 21.3 3 Oeste 15 Sur 0 -- -- 36
2019-06-12 21:00:00 23.4 5 Sudoeste 19 Sur 0 -- -- 32
2019-06-12 20:00:00 25.5 9 Sur 22 Sudoeste 0 -- -- 27
2019-06-12 19:00:00 26.4 10 Sudoeste 21 Sur 0 -- -- 25
2019-06-12 18:00:00 26.7 10 Sudoeste 23 Sudeste 0 -- -- 24
2019-06-12 17:00:00 26.8 11 Sudoeste 24 Sur 0 -- -- 24
2019-06-12 16:00:00 25.6 10 Sur 23 Sur 0 -- -- 26
2019-06-12 15:00:00 24.8 9 Sudeste 26 Sudoeste 0 -- -- 27
2019-06-12 14:00:00 25 8 Sudeste 20 Sur 0 -- -- 26
2019-06-12 13:00:00 24 11 Oeste 30 Sudoeste 0 -- -- 26
2019-06-12 12:00:00 23 6 Sudoeste 18 Sudeste 0 -- -- 29
2019-06-12 11:00:00 21.8 6 Sur 18 Sur 0 -- -- 36
2019-06-12 10:00:00 21.2 5 Sur 13 Sur 0 -- -- 30
2019-06-12 09:00:00 17.4 4 Noroeste 9 Noroeste 0 -- -- 35
2019-06-12 08:00:00 11.5 2 Este 9 Noroeste 0 -- -- 54
2019-06-12 07:00:00 11.8 0 Calma 10 Norte 0 -- -- 42
2019-06-12 06:00:00 13.8 4 Noroeste 13 Este 0 -- -- 37
2019-06-12 05:00:00 14.4 5 Norte 17 Norte 0 -- -- 33
2019-06-12 04:00:00 14.6 7 Norte 24 Nordeste 0 -- -- 30
2019-06-12 03:00:00 15.7 10 Nordeste 23 Nordeste 0 -- -- 27
2019-06-12 02:00:00 16.3 10 Nordeste 29 Nordeste 0 -- -- 30
2019-06-12 01:00:00 17 14 Nordeste 30 Este 0 -- -- 32
2019-06-12 00:00:00 17.5 14 Nordeste 35 Este 0 -- -- 35
2019-06-11 23:00:00 17.9 11 Nordeste 34 Este 0 -- -- 37
2019-06-11 22:00:00 18.7 14 Nordeste 32 Este 0 -- -- 37
2019-06-11 21:00:00 20.1 12 Nordeste 26 Nordeste 0 -- -- 36
2019-06-11 20:00:00 22.6 11 Nordeste 32 Nordeste 0 -- -- 32
2019-06-11 19:00:00 25 6 Norte 19 Oeste 0 -- -- 27
2019-06-11 18:00:00 -- -- -- -- -- -- -- -- --
2019-06-11 17:00:00 25 10 Norte 22 Este 0 -- -- 27
2019-06-11 16:00:00 24.8 9 Oeste 32 Sudoeste 0 -- -- 29
2019-06-11 15:00:00 23.8 9 Noroeste 24 Sudoeste 0 -- -- 32
2019-06-11 14:00:00 22.9 11 Oeste 28 Oeste 0 -- -- 36
2019-06-11 13:00:00 21.8 15 Sudoeste 30 Oeste 0 -- -- 37
2019-06-11 12:00:00 21.1 14 Sudoeste 24 Sudoeste 0 -- -- 38
2019-06-11 11:00:00 19.9 8 Sudoeste 17 Sudoeste 0 -- -- 40
2019-06-11 10:00:00 17.3 7 Sudeste 12 Sudeste 0 -- -- 44
2019-06-11 09:00:00 14.5 3 Sudeste 5 Sudeste 0 -- -- 54
2019-06-11 08:00:00 8.8 0 Calma 3 Nordeste 0 -- -- 74
2019-06-11 07:00:00 8.1 2 Nordeste 5 Nordeste 0 -- -- 67
2019-06-11 06:00:00 8.6 0 Calma 5 Nordeste 0 -- -- 63
2019-06-11 05:00:00 9.4 0 Calma 3 Nordeste 0 -- -- 59
2019-06-11 04:00:00 10.5 2 Nordeste 5 Este 0 -- -- 56
2019-06-11 03:00:00 11.5 0 Calma 5 Nordeste 0 -- -- 54
2019-06-11 02:00:00 12.1 3 Nordeste 8 Este 0 -- -- 49
2019-06-11 01:00:00 14.1 0 Calma 5 Norte 0 -- -- 47
2019-06-11 00:00:00 17.1 4 Norte 8 Nordeste 0 -- -- 34
2019-06-10 23:00:00 17.5 3 Norte 8 Norte 0 -- -- 34
2019-06-10 22:00:00 18.9 5 Norte 8 Noroeste 0 -- -- 33
2019-06-10 21:00:00 22.6 3 Oeste 19 Oeste 0 -- -- 29
2019-06-10 20:00:00 25.3 6 Noroeste 19 Oeste 0 -- -- 26
2019-06-10 19:00:00 25.8 10 Oeste 23 Oeste 0 -- -- 23
2019-06-10 18:00:00 26 13 Sudoeste 28 Sudoeste 0 -- -- 24
2019-06-10 17:00:00 25.5 12 Sudoeste 28 Oeste 0 -- -- 24
2019-06-10 16:00:00 24.9 12 Sudoeste 27 Sudoeste 0 -- -- 28
2019-06-10 15:00:00 24.4 10 Sudoeste 29 Sudoeste 0 -- -- 29
2019-06-10 14:00:00 23.3 10 Sudoeste 28 Oeste 0 -- -- 32
2019-06-10 13:00:00 22.9 6 Oeste 17 Sudoeste 0 -- -- 33
2019-06-10 12:00:00 22.1 6 Sudoeste 22 Sur 0 -- -- 33
2019-06-10 11:00:00 20.5 11 Sudoeste 19 Sudoeste 0 -- -- 39
2019-06-10 10:00:00 18.9 5 Sudeste 12 Sudeste 0 -- -- 42
2019-06-10 09:00:00 16 8 Sudeste 14 Sudeste 0 -- -- 53
2019-06-10 08:00:00 10.4 2 Nordeste 5 Nordeste 0 -- -- 74
2019-06-10 07:00:00 10.4 0 Calma 5 Noroeste 0 -- -- 68
2019-06-10 06:00:00 11.9 2 Norte 4 Nordeste 0 -- -- 63
2019-06-10 05:00:00 13.7 3 Nordeste 6 Este 0 -- -- 57
2019-06-10 04:00:00 13.9 3 Este 6 Nordeste 0 -- -- 55
2019-06-10 03:00:00 15.3 3 Nordeste 12 Norte 0 -- -- 50
2019-06-10 02:00:00 15.8 6 Este 10 Nordeste 0 -- -- 48
2019-06-10 01:00:00 16 5 Nordeste 10 Nordeste 0 -- -- 43
2019-06-10 00:00:00 16.6 5 Nordeste 9 Nordeste 0 -- -- 39
2019-06-09 23:00:00 17.3 5 Nordeste 8 Este 0 -- -- 35
2019-06-09 22:00:00 19.2 5 Nordeste 9 Norte 0 -- -- 34
2019-06-09 21:00:00 22.8 5 Oeste 18 Oeste 0 -- -- 25
2019-06-09 20:00:00 25.6 5 Oeste 26 Oeste 0 -- -- 20
2019-06-09 19:00:00 26.4 7 Oeste 29 Sudoeste 0 -- -- 20
2019-06-09 18:00:00 26.7 11 Oeste 31 Noroeste 0 -- -- 22
2019-06-09 17:00:00 27 6 Oeste 32 Sudoeste 0 -- -- 25
2019-06-09 16:00:00 26.2 10 Oeste 24 Sudoeste 0 -- -- 29
2019-06-09 15:00:00 25.8 9 Sudoeste 25 Sudoeste 0 -- -- 30
2019-06-09 14:00:00 24.6 13 Sudoeste 34 Sudoeste 0 -- -- 32
2019-06-09 13:00:00 24.3 14 Sudoeste 29 Sudoeste 0 -- -- 33
2019-06-09 12:00:00 23.3 7 Sur 30 Sudoeste 0 -- -- 35
2019-06-09 11:00:00 21.8 8 Oeste 17 Sudoeste 0 -- -- 36
2019-06-09 10:00:00 20.2 6 Sur 11 Sudeste 0 -- -- 39
2019-06-09 09:00:00 16.4 0 Calma 4 Nordeste 0 -- -- 53
2019-06-09 08:00:00 11.4 0 Calma 4 Este 0 -- -- 67
2019-06-09 07:00:00 10.8 0 Calma 9 Sudoeste 0 -- -- 62
2019-06-09 06:00:00 12.4 2 Norte 4 Este 0 -- -- 59
2019-06-09 05:00:00 14.2 2 Norte 5 Nordeste 0 -- -- 61
2019-06-09 04:00:00 15.6 3 Sudoeste 8 Sudoeste 0 -- -- 59
2019-06-09 03:00:00 16.6 2 Norte 6 Sudoeste 0 -- -- 56
2019-06-09 02:00:00 17.9 2 Nordeste 9 Sur 0 -- -- 54
2019-06-09 01:00:00 20 8 Sudoeste 20 Sudoeste 0 -- -- 44
2019-06-09 00:00:00 21.3 8 Sudoeste 20 Oeste 0 -- -- 40
2019-06-08 23:00:00 22.4 7 Sudoeste 20 Sudoeste 0 -- -- 35
2019-06-08 22:00:00 23.7 13 Sudoeste 25 Sudoeste 0 -- -- 31
2019-06-08 21:00:00 24.9 14 Sudoeste 26 Oeste 0 -- -- 29
2019-06-08 20:00:00 27 11 Sudoeste 23 Sudoeste 0 -- -- 27
2019-06-08 19:00:00 26.9 12 Sudoeste 29 Sudoeste 0 -- -- 28
2019-06-08 18:00:00 27.6 10 Sudoeste 25 Sudoeste 0 -- -- 26
2019-06-08 17:00:00 27.5 16 Sudoeste 26 Oeste 0 -- -- 24
2019-06-08 16:00:00 27.2 11 Sudoeste 28 Sudoeste 0 -- -- 23
2019-06-08 15:00:00 26.1 13 Sur 41 Sudoeste 0 -- -- 25
2019-06-08 14:00:00 26.4 10 Sur 26 Sudoeste 0 -- -- 24
2019-06-08 13:00:00 25.4 14 Sudoeste 39 Sudoeste 0 -- -- 25
2019-06-08 12:00:00 25 10 Sur 21 Sur 0 -- -- 27
2019-06-08 11:00:00 23.2 6 Sudeste 17 Sur 0 -- -- 28
2019-06-08 10:00:00 20.9 5 Sur 9 Sudeste 0 -- -- 29
2019-06-08 09:00:00 17.8 0 Calma 6 Norte 0 -- -- 41
2019-06-08 08:00:00 14.9 5 Norte 16 Norte 0 -- -- 34
2019-06-08 07:00:00 13.6 8 Norte 16 Noroeste 0 -- -- 36
2019-06-08 06:00:00 14.3 7 Norte 15 Noroeste 0 -- -- 35
2019-06-08 05:00:00 14.7 4 Norte 14 Norte 0 -- -- 34
2019-06-08 04:00:00 15.2 7 Noroeste 17 Norte 0 -- -- 33
2019-06-08 03:00:00 14.9 8 Nordeste 15 Norte 0 -- -- 35
2019-06-08 02:00:00 14.7 6 Norte 14 Norte 0 -- -- 35
2019-06-08 01:00:00 14.2 7 Nordeste 14 Nordeste 0 -- -- 36
2019-06-08 00:00:00 13.8 5 Norte 12 Noroeste 0 -- -- 37
2019-06-07 23:00:00 13 5 Nordeste 12 Nordeste 0 -- -- 42
2019-06-07 22:00:00 15.2 5 Nordeste 9 Nordeste 0 -- -- 35
2019-06-07 21:00:00 19.5 3 Oeste 13 Oeste 0 -- -- 27
2019-06-07 20:00:00 23 7 Oeste 17 Noroeste 0 -- -- 20
2019-06-07 19:00:00 23.6 9 Oeste 22 Sudoeste 0 -- -- 22
2019-06-07 18:00:00 23.6 9 Oeste 19 Oeste 0 -- -- 22
2019-06-07 17:00:00 22.9 5 Sur 22 Sudoeste 0 -- -- 23
2019-06-07 16:00:00 21.9 9 Sur 24 Sudoeste 0 -- -- 22
2019-06-07 15:00:00 20.7 9 Oeste 22 Oeste 0 -- -- 23
2019-06-07 14:00:00 19.9 12 Sudoeste 25 Sudoeste 0 -- -- 25
2019-06-07 13:00:00 18.7 11 Sudoeste 26 Sudoeste 0 -- -- 32
2019-06-07 12:00:00 18.3 8 Oeste 20 Sudoeste 0 -- -- 36
2019-06-07 11:00:00 16.8 6 Norte 18 Norte 0 -- -- 42
2019-06-07 10:00:00 14.6 6 Norte 24 Norte 0 -- -- 55
2019-06-07 09:00:00 12.8 6 Oeste 17 Oeste 0 -- -- 57
2019-06-07 08:00:00 10.8 3 Este 17 Nordeste 0 -- -- 72
2019-06-07 07:00:00 11 8 Nordeste 24 Sudoeste 0 -- -- 76
2019-06-07 06:00:00 12.1 3 Oeste 10 Sudoeste 0 -- -- 80
2019-06-07 05:00:00 12.4 4 Sudoeste 8 Sudoeste 0 -- -- 73
2019-06-07 04:00:00 11.7 0 Calma 5 Este 0 -- -- 69
2019-06-07 03:00:00 11.2 0 Calma 5 Sur 0 -- -- 69
2019-06-07 02:00:00 13.3 2 Sur 12 Sudoeste 0 -- -- 60
2019-06-07 01:00:00 15.5 9 Sur 23 Sur 0 -- -- 48
2019-06-07 00:00:00 16.6 9 Sudoeste 20 Sudoeste 0 -- -- 37
2019-06-06 23:00:00 17.2 5 Sudoeste 22 Oeste 0 -- -- 29
2019-06-06 22:00:00 19.1 12 Sudoeste 24 Sudoeste 0 -- -- 26
2019-06-06 21:00:00 20.8 14 Sudoeste 31 Sudoeste 0 -- -- 19
2019-06-06 20:00:00 22.8 19 Sudoeste 37 Sudoeste 0 -- -- 17
2019-06-06 19:00:00 23.9 21 Sudoeste 39 Sudoeste 0 -- -- 18
2019-06-06 18:00:00 24.4 19 Sudoeste 33 Sudoeste 0 -- -- 17
2019-06-06 17:00:00 24.5 18 Sudoeste 36 Sudoeste 0 -- -- 18
2019-06-06 16:00:00 24 15 Sudoeste 30 Oeste 0 -- -- 17
2019-06-06 15:00:00 22.9 14 Sur 28 Sur 0 -- -- 22
2019-06-06 14:00:00 21.9 12 Sur 22 Sudoeste 0 -- -- 25
2019-06-06 13:00:00 21.3 10 Sur 33 Sur 0 -- -- 28
2019-06-06 12:00:00 20.2 8 Sur 21 Sur 0 -- -- 33
2019-06-06 11:00:00 18.6 8 Sudeste 15 Sur 0 -- -- 37
2019-06-06 10:00:00 16.5 5 Sur 9 Sur 0 -- -- 42
2019-06-06 09:00:00 13.6 0 Calma 3 Sudoeste 0 -- -- 54
2019-06-06 08:00:00 9.3 0 Calma 6 Norte 0 -- -- 68
2019-06-06 07:00:00 9.8 3 Norte 9 Norte 0 -- -- 61
2019-06-06 06:00:00 9.8 4 Norte 8 Nordeste 0 -- -- 57
2019-06-06 05:00:00 8.8 3 Nordeste 6 Nordeste 0 -- -- 61
2019-06-06 04:00:00 8.9 0 Calma 7 Noroeste 0 -- -- 60
2019-06-06 03:00:00 9.6 4 Noroeste 8 Noroeste 0 -- -- 58
2019-06-06 02:00:00 8.9 0 Calma 2 Noroeste 0 -- -- 58
2019-06-06 01:00:00 9.8 0 Calma 2 Este 0 -- -- 55
2019-06-06 00:00:00 12.1 3 Noroeste 6 Norte 0 -- -- 49
2019-06-05 23:00:00 13.4 2 Norte 6 Nordeste 0 -- -- 42
2019-06-05 22:00:00 15.1 5 Nordeste 7 Oeste 0 -- -- 41
2019-06-05 21:00:00 18.1 3 Oeste 15 Sudoeste 0 -- -- 34
2019-06-05 20:00:00 20.2 7 Sudoeste 20 Oeste 0 -- -- 31
2019-06-05 19:00:00 20.3 13 Sudoeste 25 Oeste 0 -- -- 30
2019-06-05 18:00:00 19.5 10 Oeste 23 Sudoeste 0 -- -- 30
2019-06-05 17:00:00 20.2 11 Oeste 28 Oeste 0 -- -- 31
2019-06-05 16:00:00 19.7 17 Oeste 36 Sudoeste 0 -- -- 31
2019-06-05 15:00:00 19.8 13 Sudoeste 31 Oeste 0 -- -- 31
2019-06-05 14:00:00 19.5 16 Sudoeste 34 Sudoeste 0 -- -- 31
2019-06-05 13:00:00 18.4 12 Noroeste 31 Oeste 0 -- -- 34
2019-06-05 12:00:00 16.9 12 Oeste 30 Oeste 0 -- -- 41
2019-06-05 11:00:00 16 8 Oeste 31 Oeste 0 -- -- 47
2019-06-05 10:00:00 14.6 10 Oeste 22 Oeste 0 -- -- 51
2019-06-05 09:00:00 13.1 4 Oeste 21 Oeste 0 -- -- 59
2019-06-05 08:00:00 10 3 Este 11 Norte 0 -- -- 72
2019-06-05 07:00:00 9.5 4 Nordeste 14 Nordeste 0 -- -- 71
2019-06-05 06:00:00 10.8 5 Oeste 23 Noroeste 0 -- -- 65
2019-06-05 05:00:00 13 10 Oeste 24 Noroeste 0 -- -- 55
2019-06-05 04:00:00 14.5 10 Oeste 27 Sudoeste 0 -- -- 58
2019-06-05 03:00:00 15.4 7 Oeste 21 Oeste 0 -- -- 63
2019-06-05 02:00:00 17 12 Oeste 24 Oeste 0 -- -- 58
2019-06-05 01:00:00 18.2 0 Calma 17 Noroeste 0 -- -- 60
2019-06-05 00:00:00 19.4 6 Oeste 24 Noroeste 0 -- -- 55
2019-06-04 23:00:00 19.6 2 Norte 11 Nordeste 0 -- -- 52
2019-06-04 22:00:00 21.6 4 Este 14 Noroeste 0 -- -- 47
2019-06-04 21:00:00 24.5 5 Oeste 28 Sudoeste 0 -- -- 40
2019-06-04 20:00:00 26.1 13 Sudoeste 34 Sudoeste 0 -- -- 35
2019-06-04 19:00:00 27.9 12 Sudoeste 40 Sudoeste 0 -- -- 31
2019-06-04 18:00:00 28.8 12 Sudoeste 34 Sudoeste 0 -- -- 30
2019-06-04 17:00:00 28.8 16 Sudoeste 36 Sur 0 -- -- 28
2019-06-04 16:00:00 28.4 14 Sudoeste 31 Sudoeste 0 -- -- 29
2019-06-04 15:00:00 27.8 15 Sur 33 Sur 0 -- -- 30
2019-06-04 14:00:00 27.7 16 Sudoeste 32 Sudoeste 0 -- -- 27
2019-06-04 13:00:00 27.1 12 Sudoeste 37 Sudoeste 0 -- -- 27
2019-06-04 12:00:00 25.7 10 Sur 21 Sur 0 -- -- 33
2019-06-04 11:00:00 24.3 7 Sur 17 Sudoeste 0 -- -- 35
2019-06-04 10:00:00 22.2 6 Sur 13 Sudeste 0 -- -- 37
2019-06-04 09:00:00 18.7 0 Calma 3 Este 0 -- -- 54
2019-06-04 08:00:00 12.6 0 Calma 2 Nordeste 0 -- -- 69
2019-06-04 07:00:00 11.8 0 Calma 2 Este 0 -- -- 60
2019-06-04 06:00:00 12.4 0 Calma 3 Nordeste 0 -- -- 57
2019-06-04 05:00:00 13.5 0 Calma 2 Oeste 0 -- -- 54
2019-06-04 04:00:00 14.5 0 Calma 3 Nordeste 0 -- -- 45
2019-06-04 03:00:00 15.9 0 Calma 8 Sudoeste 0 -- -- 45
2019-06-04 02:00:00 19.5 0 Calma 13 Oeste 0 -- -- 40
2019-06-04 01:00:00 23.9 5 Oeste 19 Oeste 0 -- -- 24
2019-06-04 00:00:00 25.1 12 Oeste 25 Oeste 0 -- -- 20
2019-06-03 23:00:00 24.7 6 Sudoeste 21 Oeste 0 -- -- 21
2019-06-03 22:00:00 24.6 4 Sur 15 Oeste 0 -- -- 25
2019-06-03 21:00:00 28.2 4 Sudoeste 21 Sudoeste 0 -- -- 23
2019-06-03 20:00:00 30.9 9 Sur 24 Sur 0 -- -- 18
2019-06-03 19:00:00 32.3 10 Sudoeste 30 Sur 0 -- -- 17
2019-06-03 18:00:00 32.9 13 Sudoeste 26 Sur 0 -- -- 18
2019-06-03 17:00:00 32.7 14 Sudoeste 33 Oeste 0 -- -- 18
2019-06-03 16:00:00 32.8 12 Sur 35 Sudoeste 0 -- -- 17
2019-06-03 15:00:00 32.6 10 Sudeste 23 Sudeste 0 -- -- 18
2019-06-03 14:00:00 31.6 9 Oeste 25 Sudoeste 0 -- -- 18
2019-06-03 13:00:00 30.5 4 Este 16 Sudoeste 0 -- -- 22
2019-06-03 12:00:00 30.1 4 Sudoeste 10 Sur 0 -- -- 22
2019-06-03 11:00:00 27.7 4 Sudeste 8 Sudeste 0 -- -- 27
2019-06-03 10:00:00 25.6 2 Sudeste 6 Sudoeste 0 -- -- 32
2019-06-03 09:00:00 19.7 0 Calma 2 Este 0 -- -- 53
2019-06-03 08:00:00 13.8 0 Calma 3 Este 0 -- -- 62
2019-06-03 07:00:00 12.9 0 Calma 4 Nordeste 0 -- -- 59
2019-06-03 06:00:00 13.6 0 Calma 3 Este 0 -- -- 55
2019-06-03 05:00:00 14.4 0 Calma 4 Nordeste 0 -- -- 48
2019-06-03 04:00:00 15.5 0 Calma 6 Nordeste 0 -- -- 46
2019-06-03 03:00:00 16.7 0 Calma 8 Este 0 -- -- 44
2019-06-03 02:00:00 18.8 0 Calma 14 Nordeste 0 -- -- 42
2019-06-03 01:00:00 19.1 0 Calma 6 Nordeste 0 -- -- 38
2019-06-03 00:00:00 21.8 3 Nordeste 10 Norte 0 -- -- 33
2019-06-02 23:00:00 21.3 0 Calma 8 Este 0 -- -- 37
2019-06-02 22:00:00 23.5 0 Calma 9 Sur 0 -- -- 35
2019-06-02 21:00:00 28.7 4 Sudoeste 16 Sudoeste 0 -- -- 25
2019-06-02 20:00:00 32.4 9 Sudoeste 16 Sudoeste 0 -- -- 21
2019-06-02 19:00:00 33.7 5 Oeste 15 Noroeste 0 -- -- 19
2019-06-02 18:00:00 33.8 10 Oeste 18 Oeste 0 -- -- 20
2019-06-02 17:00:00 33.3 10 Oeste 18 Oeste 0 -- -- 21
2019-06-02 16:00:00 32.8 9 Noroeste 21 Oeste 0 -- -- 20
2019-06-02 15:00:00 31.6 6 Sudoeste 17 Sur 0 -- -- 21
2019-06-02 14:00:00 30.8 4 Sudoeste 17 Sur 0 -- -- 22
2019-06-02 13:00:00 29.7 4 Oeste 12 Sur 0 -- -- 22
2019-06-02 12:00:00 28 3 Este 13 Sudeste 0 -- -- 25
2019-06-02 11:00:00 26.2 4 Sudeste 10 Sudeste 0 -- -- 28
2019-06-02 10:00:00 24.5 3 Sudeste 6 Sudeste 0 -- -- 30
2019-06-02 09:00:00 18.8 0 Calma 0 Calma 0 -- -- 53
2019-06-02 08:00:00 12.8 2 Nordeste 3 Este 0 -- -- 68
2019-06-02 07:00:00 11.8 0 Calma 4 Nordeste 0 -- -- 62
2019-06-02 06:00:00 12 0 Calma 4 Nordeste 0 -- -- 62
2019-06-02 05:00:00 12.9 0 Calma 4 Oeste 0 -- -- 60
2019-06-02 04:00:00 13.5 0 Calma 5 Nordeste 0 -- -- 57
2019-06-02 03:00:00 14.5 0 Calma 4 Nordeste 0 -- -- 55
2019-06-02 02:00:00 15.4 0 Calma 5 Nordeste 0 -- -- 51
2019-06-02 01:00:00 16.7 0 Calma 4 Sudoeste 0 -- -- 47
2019-06-02 00:00:00 18.2 2 Oeste 9 Este 0 -- -- 43
2019-06-01 23:00:00 21 3 Nordeste 12 Nordeste 0 -- -- 36
2019-06-01 22:00:00 23.3 4 Nordeste 12 Nordeste 0 -- -- 29
2019-06-01 21:00:00 27.3 4 Nordeste 12 Nordeste 0 -- -- 25
2019-06-01 20:00:00 31.6 4 Nordeste 14 Norte 0 -- -- 20
2019-06-01 19:00:00 32.2 9 Nordeste 23 Este 0 -- -- 19
2019-06-01 18:00:00 32.4 8 Nordeste 21 Nordeste 0 -- -- 20
2019-06-01 17:00:00 32.4 10 Este 23 Nordeste 0 -- -- 19
2019-06-01 16:00:00 31.8 8 Nordeste 30 Este 0 -- -- 19
2019-06-01 15:00:00 30.7 8 Este 43 Este 0 -- -- 21
2019-06-01 14:00:00 30.6 8 Norte 25 Este 0 -- -- 23
2019-06-01 13:00:00 29.4 9 Este 25 Este 0 -- -- 25
2019-06-01 12:00:00 28.9 9 Nordeste 18 Nordeste 0 -- -- 28
2019-06-01 11:00:00 27 4 Sudoeste 12 Sudoeste 0 -- -- 31
2019-06-01 10:00:00 24.8 3 Sur 7 Oeste 0 -- -- 35
2019-06-01 09:00:00 19.6 0 Calma 2 Nordeste 0 -- -- 56
2019-06-01 08:00:00 13.1 0 Calma 5 Nordeste 0 -- -- 71
2019-06-01 07:00:00 11.9 0 Calma 3 Este 0 -- -- 67
2019-06-01 06:00:00 12.4 0 Calma 3 Nordeste 0 -- -- 64
2019-06-01 05:00:00 12.7 0 Calma 3 Este 0 -- -- 63
2019-06-01 04:00:00 13.5 0 Calma 3 Nordeste 0 -- -- 60
2019-06-01 03:00:00 15 0 Calma 5 Nordeste 0 -- -- 54
2019-06-01 02:00:00 16.4 0 Calma 6 Nordeste 0 -- -- 49
2019-06-01 01:00:00 19.1 0 Calma 14 Este 0 -- -- 42
2019-06-01 00:00:00 19.2 0 Calma 10 Sudeste 0 -- -- 37
2019-05-31 23:00:00 21.5 5 Nordeste 12 Norte 0 -- -- 30
2019-05-31 22:00:00 23.7 4 Nordeste 11 Nordeste 0 -- -- 25
2019-05-31 21:00:00 26.4 4 Norte 15 Nordeste 0 -- -- 24
2019-05-31 20:00:00 30.4 6 Nordeste 22 Nordeste 0 -- -- 18
2019-05-31 19:00:00 31.6 6 Nordeste 22 Noroeste 0 -- -- 20
2019-05-31 18:00:00 31.7 8 Nordeste 24 Este 0 -- -- 18
2019-05-31 17:00:00 31.3 9 Nordeste 23 Este 0 -- -- 19
2019-05-31 16:00:00 31.1 13 Nordeste 23 Este 0 -- -- 20
2019-05-31 15:00:00 29.7 8 Este 28 Nordeste 0 -- -- 20
2019-05-31 14:00:00 29.2 8 Nordeste 28 Este 0 -- -- 23
2019-05-31 13:00:00 28.6 12 Nordeste 28 Nordeste 0 -- -- 25
2019-05-31 12:00:00 28.1 9 Nordeste 23 Nordeste 0 -- -- 29
2019-05-31 11:00:00 26 5 Sudoeste 9 Sur 0 -- -- 31
2019-05-31 10:00:00 24 3 Sudeste 8 Sur 0 -- -- 33
2019-05-31 09:00:00 19.4 0 Calma 4 Este 0 -- -- 53
2019-05-31 08:00:00 12.7 0 Calma 4 Nordeste 0 -- -- 67
2019-05-31 07:00:00 11.7 0 Calma 5 Este 0 -- -- 65
2019-05-31 06:00:00 12.1 0 Calma 4 Nordeste 0 -- -- 63
2019-05-31 05:00:00 12.9 0 Calma 2 Este 0 -- -- 63
2019-05-31 04:00:00 13.4 2 Nordeste 6 Sudoeste 0 -- -- 61
2019-05-31 03:00:00 14.4 0 Calma 5 Nordeste 0 -- -- 55
2019-05-31 02:00:00 15.8 0 Calma 5 Nordeste 0 -- -- 50
2019-05-31 01:00:00 17.4 2 Nordeste 5 Nordeste 0 -- -- 51
2019-05-31 00:00:00 18.2 0 Calma 11 Este 0 -- -- 40
2019-05-30 23:00:00 22 9 Nordeste 17 Nordeste 0 -- -- 29
2019-05-30 22:00:00 23.2 4 Nordeste 13 Nordeste 0 -- -- 29
2019-05-30 21:00:00 26.2 4 Nordeste 12 Nordeste 0 -- -- 25
2019-05-30 20:00:00 29.6 4 Nordeste 14 Nordeste 0 -- -- 22
2019-05-30 19:00:00 30 6 Nordeste 19 Nordeste 0 -- -- 22
2019-05-30 18:00:00 30 6 Norte 21 Este 0 -- -- 20
2019-05-30 17:00:00 29.7 8 Nordeste 23 Nordeste 0 -- -- 22
2019-05-30 16:00:00 29.5 10 Nordeste 23 Este 0 -- -- 22
2019-05-30 15:00:00 28.2 11 Este 26 Este 0 -- -- 21
2019-05-30 14:00:00 27.7 8 Nordeste 25 Nordeste 0 -- -- 23
2019-05-30 13:00:00 26.4 8 Este 19 Este 0 -- -- 25
2019-05-30 12:00:00 26 10 Nordeste 19 Este 0 -- -- 28
2019-05-30 11:00:00 24.9 11 Nordeste 21 Nordeste 0 -- -- 30
2019-05-30 10:00:00 23.8 12 Nordeste 20 Nordeste 0 -- -- 32
2019-05-30 09:00:00 21 5 Norte 15 Noroeste 0 -- -- 36
2019-05-30 08:00:00 16.4 7 Nordeste 17 Nordeste 0 -- -- 44
2019-05-30 07:00:00 16.4 3 Este 22 Nordeste 0 -- -- 44
2019-05-30 06:00:00 17.8 12 Nordeste 24 Norte 0 -- -- 36
2019-05-30 05:00:00 18.2 6 Nordeste 31 Nordeste 0 -- -- 35
2019-05-30 04:00:00 19.2 7 Nordeste 21 Este 0 -- -- 33
2019-05-30 03:00:00 20.4 6 Este 28 Nordeste 0 -- -- 30
2019-05-30 02:00:00 20.5 8 Este 26 Nordeste 0 -- -- 32
2019-05-30 01:00:00 20 6 Nordeste 23 Este 0 -- -- 34
2019-05-30 00:00:00 20.6 5 Nordeste 18 Norte 0 -- -- 34
2019-05-29 23:00:00 21.6 6 Nordeste 20 Nordeste 0 -- -- 30
2019-05-29 22:00:00 22.6 6 Nordeste 22 Nordeste 0 -- -- 28
2019-05-29 21:00:00 23.8 7 Nordeste 21 Nordeste 0 -- -- 27
2019-05-29 20:00:00 26 8 Nordeste 28 Este 0 -- -- 24
2019-05-29 19:00:00 27 12 Nordeste 26 Nordeste 0 -- -- 23
2019-05-29 18:00:00 27.1 12 Nordeste 30 Nordeste 0 -- -- 21
2019-05-29 17:00:00 26.5 15 Nordeste 31 Este 0 -- -- 23
2019-05-29 16:00:00 26 13 Este 29 Nordeste 0 -- -- 25
2019-05-29 15:00:00 24.8 11 Este 28 Este 0 -- -- 27
2019-05-29 14:00:00 24.7 10 Nordeste 26 Nordeste 0 -- -- 26
2019-05-29 13:00:00 22.6 15 Este 31 Este 0 -- -- 28
2019-05-29 12:00:00 21.4 18 Nordeste 46 Nordeste 0 -- -- 30
2019-05-29 11:00:00 20.7 18 Nordeste 45 Este 0 -- -- 30
2019-05-29 10:00:00 19.1 27 Nordeste 50 Nordeste 0 -- -- 32
2019-05-29 09:00:00 18.7 18 Nordeste 36 Este 0 -- -- 34
2019-05-29 08:00:00 16.5 6 Nordeste 32 Nordeste 0 -- -- 36
2019-05-29 07:00:00 16.1 12 Nordeste 36 Este 0 -- -- 37
2019-05-29 06:00:00 16.6 14 Nordeste 29 Este 0 -- -- 36
2019-05-29 05:00:00 17.2 12 Nordeste 36 Nordeste 0 -- -- 35
2019-05-29 04:00:00 17.8 21 Nordeste 37 Nordeste 0 -- -- 35
2019-05-29 03:00:00 18.3 12 Nordeste 30 Nordeste 0 -- -- 36
2019-05-29 02:00:00 19.6 11 Nordeste 39 Nordeste 0 -- -- 31
2019-05-29 01:00:00 21.3 17 Nordeste 37 Nordeste 0 -- -- 27
2019-05-29 00:00:00 22.9 11 Nordeste 29 Nordeste 0 -- -- 22
2019-05-28 23:00:00 23.7 10 Nordeste 28 Nordeste 0 -- -- 22
2019-05-28 22:00:00 24.9 8 Nordeste 22 Este 0 -- -- 23
2019-05-28 21:00:00 26.4 7 Nordeste 15 Norte 0 -- -- 29
2019-05-28 20:00:00 30.1 5 Oeste 17 Oeste 0 -- -- 27
2019-05-28 19:00:00 30.7 8 Oeste 19 Oeste 0 -- -- 25
2019-05-28 18:00:00 30 5 Nordeste 20 Este 0 -- -- 26
2019-05-28 17:00:00 30.7 7 Oeste 24 Oeste 0 -- -- 24
2019-05-28 16:00:00 30 6 Sur 20 Nordeste 0 -- -- 26
2019-05-28 15:00:00 29.5 8 Oeste 22 Este 0 -- -- 28
2019-05-28 14:00:00 28.6 7 Nordeste 23 Este 0 -- -- 28
2019-05-28 13:00:00 27.9 5 Nordeste 23 Este 0 -- -- 30
2019-05-28 12:00:00 27.5 8 Este 22 Nordeste 0 -- -- 33
2019-05-28 11:00:00 26.2 11 Nordeste 24 Nordeste 0 -- -- 35
2019-05-28 10:00:00 25.7 8 Nordeste 22 Nordeste 0 -- -- 36
2019-05-28 09:00:00 23.6 4 Nordeste 13 Noroeste 0 -- -- 44
2019-05-28 08:00:00 18.9 6 Noroeste 13 Norte 0 -- -- 47
2019-05-28 07:00:00 16.4 2 Noroeste 12 Noroeste 0 -- -- 59
2019-05-28 06:00:00 18.5 5 Noroeste 13 Noroeste 0 -- -- 47
2019-05-28 05:00:00 19.3 7 Noroeste 15 Noroeste 0 -- -- 44
2019-05-28 04:00:00 19.8 6 Norte 17 Norte 0 -- -- 41
2019-05-28 03:00:00 19.9 8 Norte 16 Oeste 0 -- -- 41
2019-05-28 02:00:00 16.5 0 Calma 7 Nordeste 0 -- -- 53
2019-05-28 01:00:00 19.1 0 Calma 6 Noroeste 0 -- -- 47
2019-05-28 00:00:00 21.5 3 Norte 8 Norte 0 -- -- 40
2019-05-27 23:00:00 22 5 Nordeste 9 Nordeste 0 -- -- 39
2019-05-27 22:00:00 22.7 5 Nordeste 8 Nordeste 0 -- -- 37
2019-05-27 21:00:00 25 2 Nordeste 20 Oeste 0 -- -- 34
2019-05-27 20:00:00 29 4 Oeste 21 Oeste 0 -- -- 26
2019-05-27 19:00:00 29.9 6 Nordeste 23 Noroeste 0 -- -- 25
2019-05-27 18:00:00 30.7 10 Oeste 28 Oeste 0 -- -- 22
2019-05-27 17:00:00 29.9 5 Noroeste 27 Sudoeste 0 -- -- 24
2019-05-27 16:00:00 30 13 Sudoeste 34 Sudoeste 0 -- -- 26
2019-05-27 15:00:00 29.4 16 Sudoeste 31 Sudoeste 0 -- -- 26
2019-05-27 14:00:00 28.7 5 Noroeste 17 Nordeste 0 -- -- 28
2019-05-27 13:00:00 27.9 4 Norte 14 Este 0 -- -- 30
2019-05-27 12:00:00 26.4 8 Sudoeste 13 Sudoeste 0 -- -- 29
2019-05-27 11:00:00 24.7 6 Sur 12 Sur 0 -- -- 31
2019-05-27 10:00:00 22.5 2 Sur 5 Sur 0 -- -- 40
2019-05-27 09:00:00 18.2 0 Calma 3 Nordeste 0 -- -- 57
2019-05-27 08:00:00 12.2 0 Calma 4 Este 0 -- -- 68
2019-05-27 07:00:00 11.5 0 Calma 9 Noroeste 0 -- -- 61
2019-05-27 06:00:00 12.1 0 Calma 8 Nordeste 0 -- -- 59
2019-05-27 05:00:00 12.8 0 Calma 4 Sudoeste 0 -- -- 58
2019-05-27 04:00:00 13.3 0 Calma 8 Norte 0 -- -- 57
2019-05-27 03:00:00 13.2 0 Calma 8 Nordeste 0 -- -- 51
2019-05-27 02:00:00 13.6 2 Sur 8 Noroeste 0 -- -- 54
2019-05-27 01:00:00 15.2 0 Calma 3 Norte 0 -- -- 44
2019-05-27 00:00:00 16.4 2 Nordeste 6 Nordeste 0 -- -- 40
2019-05-26 23:00:00 17.9 2 Nordeste 7 Nordeste 0 -- -- 36
2019-05-26 22:00:00 20.3 4 Nordeste 13 Norte 0 -- -- 34
2019-05-26 21:00:00 23.3 4 Norte 11 Nordeste 0 -- -- 26
2019-05-26 20:00:00 26.4 5 Nordeste 18 Norte 0 -- -- 23
2019-05-26 19:00:00 26.7 7 Nordeste 25 Este 0 -- -- 22
2019-05-26 18:00:00 27.1 6 Noroeste 19 Norte 0 -- -- 21
2019-05-26 17:00:00 26.6 6 Norte 52 Este 0 -- -- 22
2019-05-26 16:00:00 25.8 13 Nordeste 28 Este 0 -- -- 23
2019-05-26 15:00:00 25 7 Nordeste 23 Este 0 -- -- 24
2019-05-26 14:00:00 24.4 8 Nordeste 20 Nordeste 0 -- -- 31
2019-05-26 13:00:00 23.2 10 Nordeste 26 Este 0 -- -- 34
2019-05-26 12:00:00 22.2 10 Nordeste 24 Este 0 -- -- 33
2019-05-26 11:00:00 20.9 14 Este 27 Este 0 -- -- 39
2019-05-26 10:00:00 20.5 8 Nordeste 23 Nordeste 0 -- -- 45
2019-05-26 09:00:00 18.2 8 Noroeste 22 Oeste 0 -- -- 49
2019-05-26 08:00:00 14.6 5 Oeste 13 Oeste 0 -- -- 56
2019-05-26 07:00:00 14.1 5 Noroeste 10 Noroeste 0 -- -- 58
2019-05-26 06:00:00 12.9 3 Norte 9 Nordeste 0 -- -- 60
2019-05-26 05:00:00 13 3 Nordeste 6 Norte 0 -- -- 57
2019-05-26 04:00:00 12 0 Calma 5 Este 0 -- -- 63
2019-05-26 03:00:00 12.4 0 Calma 8 Este 0 -- -- 60
2019-05-26 02:00:00 13.7 0 Calma 8 Nordeste 0 -- -- 57
2019-05-26 01:00:00 13.9 2 Nordeste 7 Nordeste 0 -- -- 53
2019-05-26 00:00:00 16.1 3 Norte 8 Norte 0 -- -- 43